Time,TemperatureF,DewpointF,PressureIn,WindDirection,WindDirectionDegrees,WindSpeedMPH,WindSpeedGustMPH,Humidity,HourlyPrecipIn,Conditions,Clouds,dailyrainin,SoftwareType,DateUTC
2013-04-08 00:02:00,36.0,29.0,29.91,ENE,78,0.0,4.0,77,0.00,,,0.00,,2013-04-08 05:02:00,
2013-04-08 00:12:00,36.0,29.0,29.91,ENE,78,0.0,4.0,77,0.00,,,0.00,,2013-04-08 05:12:00,
2013-04-08 00:22:00,36.0,29.0,29.91,ENE,78,0.0,4.0,77,0.00,,,0.00,,2013-04-08 05:22:00,
2013-04-08 00:32:00,36.0,29.0,29.90,SE,140,5.0,6.0,77,0.00,,,0.00,,2013-04-08 05:32:00,
2013-04-08 00:42:00,36.0,29.0,29.89,East,80,2.0,3.0,76,0.00,,,0.00,,2013-04-08 05:42:00,
2013-04-08 00:52:00,36.0,29.0,29.89,East,80,2.0,3.0,76,0.00,,,0.00,,2013-04-08 05:52:00,
2013-04-08 01:02:00,36.0,29.0,29.89,ESE,107,3.0,9.0,76,0.00,,,0.00,,2013-04-08 06:02:00,
2013-04-08 01:12:00,36.0,29.0,29.89,ESE,107,3.0,9.0,76,0.00,,,0.00,,2013-04-08 06:12:00,
2013-04-08 01:22:00,36.0,29.0,29.89,ESE,107,3.0,9.0,76,0.00,,,0.00,,2013-04-08 06:22:00,
2013-04-08 01:32:00,36.0,29.0,29.89,ESE,107,3.0,9.0,76,0.00,,,0.00,,2013-04-08 06:32:00,
2013-04-08 01:42:00,36.0,29.0,29.89,ESE,107,3.0,9.0,76,0.00,,,0.00,,2013-04-08 06:42:00,
2013-04-08 01:52:00,36.0,29.0,29.87,SE,141,1.0,3.0,74,0.00,,,0.00,,2013-04-08 06:52:00,
2013-04-08 02:02:00,36.0,29.0,29.87,SE,141,1.0,3.0,74,0.00,,,0.00,,2013-04-08 07:02:00,
2013-04-08 02:12:00,36.0,29.0,29.87,SE,141,1.0,3.0,74,0.00,,,0.00,,2013-04-08 07:12:00,
2013-04-08 02:22:00,36.0,29.0,29.87,SE,141,1.0,3.0,74,0.00,,,0.00,,2013-04-08 07:22:00,
2013-04-08 02:32:00,36.0,29.0,29.87,SE,141,1.0,3.0,74,0.00,,,0.00,,2013-04-08 07:32:00,
2013-04-08 03:33:00,37.0,30.0,29.83,SE,126,2.0,8.0,75,0.00,,,0.00,,2013-04-08 08:33:00,
2013-04-08 03:43:00,37.0,30.0,29.81,East,91,4.0,6.0,76,0.00,,,0.00,,2013-04-08 08:43:00,
2013-04-08 03:52:00,37.0,30.0,29.81,East,91,4.0,6.0,76,0.00,,,0.00,,2013-04-08 08:52:00,
2013-04-08 04:02:00,37.0,30.0,29.81,ESE,102,2.0,7.0,76,0.00,,,0.00,,2013-04-08 09:02:00,
2013-04-08 04:12:00,38.0,31.0,29.81,ENE,68,3.0,7.0,76,0.00,,,0.00,,2013-04-08 09:12:00,
2013-04-08 04:22:00,38.0,31.0,29.81,ENE,68,3.0,7.0,76,0.00,,,0.00,,2013-04-08 09:22:00,
2013-04-08 04:33:00,38.0,31.0,29.81,ENE,68,3.0,7.0,76,0.00,,,0.00,,2013-04-08 09:33:00,
2013-04-08 04:42:00,38.0,31.0,29.81,ENE,68,3.0,7.0,76,0.00,,,0.00,,2013-04-08 09:42:00,
2013-04-08 04:53:00,39.0,32.0,29.78,East,97,1.0,3.0,77,0.00,,,0.00,,2013-04-08 09:53:00,
2013-04-08 05:03:00,39.0,32.0,29.78,East,97,1.0,3.0,77,0.00,,,0.00,,2013-04-08 10:03:00,
2013-04-08 05:13:00,39.0,32.0,29.78,East,97,1.0,3.0,77,0.00,,,0.00,,2013-04-08 10:13:00,
2013-04-08 05:23:00,39.0,32.0,29.77,SE,131,3.0,6.0,77,0.00,,,0.00,,2013-04-08 10:23:00,
2013-04-08 05:33:00,40.0,33.0,29.76,ESE,113,1.0,3.0,77,0.00,,,0.00,,2013-04-08 10:33:00,
2013-04-08 05:42:00,40.0,33.0,29.76,ESE,113,1.0,3.0,77,0.00,,,0.00,,2013-04-08 10:42:00,
2013-04-08 05:52:00,40.0,33.0,29.75,East,96,2.0,3.0,77,0.00,,,0.00,,2013-04-08 10:52:00,
2013-04-08 06:02:00,40.0,33.0,29.75,ESE,115,3.0,8.0,76,0.00,,,0.00,,2013-04-08 11:02:00,
2013-04-08 06:12:00,41.0,34.0,29.73,ENE,77,3.0,7.0,76,0.00,,,0.00,,2013-04-08 11:12:00,
2013-04-08 06:22:00,41.0,34.0,29.73,ENE,77,3.0,7.0,76,0.00,,,0.00,,2013-04-08 11:22:00,
2013-04-08 06:32:00,41.0,34.0,29.73,ENE,77,3.0,7.0,76,0.00,,,0.00,,2013-04-08 11:32:00,
2013-04-08 06:42:00,41.0,34.0,29.73,ENE,77,3.0,7.0,76,0.00,,,0.00,,2013-04-08 11:42:00,
2013-04-08 06:52:00,41.0,34.0,29.72,SE,131,3.0,9.0,75,0.00,,,0.00,,2013-04-08 11:52:00,
2013-04-08 07:03:00,41.0,34.0,29.70,SE,125,0.0,9.0,75,0.00,,,0.00,,2013-04-08 12:03:00,
2013-04-08 07:12:00,41.0,34.0,29.70,SE,125,0.0,9.0,75,0.00,,,0.00,,2013-04-08 12:12:00,
2013-04-08 07:22:00,42.0,35.0,29.71,SE,134,1.0,3.0,75,0.00,,,0.00,,2013-04-08 12:22:00,
2013-04-08 07:33:00,42.0,35.0,29.71,SE,134,1.0,3.0,75,0.00,,,0.00,,2013-04-08 12:33:00,
2013-04-08 07:42:00,42.0,35.0,29.71,SE,134,1.0,3.0,75,0.00,,,0.00,,2013-04-08 12:42:00,
2013-04-08 07:52:00,41.0,36.0,29.68,East,82,3.0,7.0,81,0.01,,,0.01,,2013-04-08 12:52:00,
2013-04-08 08:03:00,41.0,36.0,29.68,East,82,3.0,7.0,81,0.01,,,0.01,,2013-04-08 13:03:00,
2013-04-08 08:12:00,41.0,36.0,29.68,East,82,3.0,7.0,81,0.01,,,0.01,,2013-04-08 13:12:00,
2013-04-08 08:22:00,40.0,37.0,29.68,East,101,4.0,6.0,88,0.08,,,0.07,,2013-04-08 13:22:00,
2013-04-08 08:32:00,40.0,37.0,29.68,East,101,4.0,6.0,88,0.08,,,0.07,,2013-04-08 13:32:00,
2013-04-08 08:43:00,40.0,37.0,29.68,East,101,4.0,6.0,88,0.08,,,0.07,,2013-04-08 13:43:00,
2013-04-08 08:52:00,39.0,37.0,29.67,ENE,73,7.0,7.0,92,0.19,,,0.20,,2013-04-08 13:52:00,
2013-04-08 09:02:00,39.0,37.0,29.67,ENE,73,7.0,7.0,92,0.19,,,0.20,,2013-04-08 14:02:00,
2013-04-08 09:12:00,38.0,36.0,29.62,NE,51,4.0,8.0,94,0.24,,,0.31,,2013-04-08 14:12:00,
2013-04-08 09:22:00,38.0,36.0,29.62,NE,51,4.0,8.0,94,0.24,,,0.31,,2013-04-08 14:22:00,
2013-04-08 09:32:00,38.0,36.0,29.62,NE,51,4.0,8.0,94,0.24,,,0.31,,2013-04-08 14:32:00,
2013-04-08 09:43:00,39.0,38.0,29.59,NE,53,8.0,12.0,96,0.24,,,0.41,,2013-04-08 14:43:00,
2013-04-08 09:52:00,39.0,38.0,29.59,NE,53,8.0,12.0,96,0.24,,,0.41,,2013-04-08 14:52:00,
2013-04-08 10:02:00,39.0,38.0,29.59,NE,53,8.0,12.0,96,0.24,,,0.41,,2013-04-08 15:02:00,
2013-04-08 10:12:00,40.0,39.0,29.58,East,89,4.0,9.0,96,0.20,,,0.49,,2013-04-08 15:12:00,
2013-04-08 10:22:00,40.0,39.0,29.58,East,89,4.0,9.0,96,0.20,,,0.49,,2013-04-08 15:22:00,
2013-04-08 10:33:00,40.0,39.0,29.58,East,88,5.0,10.0,96,0.18,,,0.50,,2013-04-08 15:33:00,
2013-04-08 10:43:00,40.0,39.0,29.58,East,88,5.0,10.0,96,0.18,,,0.50,,2013-04-08 15:43:00,
2013-04-08 10:53:00,40.0,39.0,29.58,ENE,73,3.0,7.0,96,0.14,,,0.54,,2013-04-08 15:53:00,
2013-04-08 11:03:00,40.0,39.0,29.58,ENE,73,3.0,7.0,96,0.14,,,0.54,,2013-04-08 16:03:00,
2013-04-08 11:13:00,39.0,38.0,29.59,ENE,58,6.0,9.0,97,0.11,,,0.59,,2013-04-08 16:13:00,
2013-04-08 11:22:00,39.0,38.0,29.59,ENE,58,6.0,9.0,97,0.11,,,0.59,,2013-04-08 16:22:00,
2013-04-08 11:32:00,39.0,38.0,29.59,ENE,58,6.0,9.0,97,0.11,,,0.59,,2013-04-08 16:32:00,
2013-04-08 11:42:00,39.0,38.0,29.59,ENE,64,4.0,7.0,97,0.10,,,0.60,,2013-04-08 16:42:00,
2013-04-08 11:53:00,40.0,39.0,29.60,NE,49,3.0,6.0,98,0.07,,,0.60,,2013-04-08 16:53:00,
2013-04-08 12:03:00,40.0,39.0,29.60,North,355,2.0,4.0,98,0.05,,,0.60,,2013-04-08 17:03:00,
2013-04-08 12:12:00,40.0,39.0,29.62,North,360,3.0,6.0,98,0.03,,,0.60,,2013-04-08 17:12:00,
2013-04-08 12:22:00,40.0,39.0,29.62,North,360,3.0,6.0,98,0.03,,,0.60,,2013-04-08 17:22:00,
2013-04-08 12:32:00,40.0,39.0,29.62,North,360,3.0,6.0,98,0.03,,,0.60,,2013-04-08 17:32:00,
2013-04-08 12:43:00,40.0,39.0,29.62,North,360,3.0,6.0,98,0.03,,,0.60,,2013-04-08 17:43:00,
2013-04-08 12:52:00,40.0,39.0,29.65,NNW,329,5.0,6.0,97,0.00,,,0.60,,2013-04-08 17:52:00,
2013-04-08 13:01:00,40.0,39.0,29.71,NW,314,3.0,7.0,98,0.01,,,0.61,,2013-04-08 18:01:00,
2013-04-08 13:02:00,40.0,39.0,29.69,NNW,336,2.0,9.0,97,0.00,,,0.60,,2013-04-08 18:02:00,
2013-04-08 13:12:00,40.0,39.0,29.71,NW,314,3.0,7.0,98,0.01,,,0.61,,2013-04-08 18:12:00,
2013-04-08 13:22:00,40.0,39.0,29.71,NW,314,3.0,7.0,98,0.01,,,0.61,,2013-04-08 18:22:00,
2013-04-08 13:32:00,40.0,39.0,29.71,NW,314,3.0,7.0,98,0.01,,,0.61,,2013-04-08 18:32:00,
2013-04-08 13:42:00,40.0,39.0,29.71,NW,314,3.0,7.0,98,0.01,,,0.61,,2013-04-08 18:42:00,
2013-04-08 13:52:00,40.0,39.0,29.71,NW,314,3.0,7.0,98,0.01,,,0.61,,2013-04-08 18:52:00,
2013-04-08 14:13:00,41.0,40.0,29.75,NW,321,6.0,9.0,97,0.00,,,0.61,,2013-04-08 19:13:00,
2013-04-08 14:23:00,41.0,40.0,29.75,NW,321,6.0,9.0,97,0.00,,,0.61,,2013-04-08 19:23:00,
2013-04-08 14:33:00,40.0,39.0,29.75,North,5,4.0,8.0,97,0.00,,,0.61,,2013-04-08 19:33:00,
2013-04-08 14:43:00,41.0,40.0,29.76,NNW,330,3.0,5.0,97,0.00,,,0.61,,2013-04-08 19:43:00,
2013-04-08 14:52:00,41.0,40.0,29.76,NNW,330,3.0,5.0,97,0.00,,,0.61,,2013-04-08 19:52:00,
2013-04-08 15:02:00,41.0,40.0,29.76,North,360,3.0,7.0,97,0.00,,,0.61,,2013-04-08 20:02:00,
2013-04-08 15:12:00,43.0,42.0,29.77,NE,47,2.0,4.0,97,0.00,,,0.61,,2013-04-08 20:12:00,
2013-04-08 15:22:00,43.0,42.0,29.77,NE,47,2.0,4.0,97,0.00,,,0.61,,2013-04-08 20:22:00,
2013-04-08 15:33:00,43.0,42.0,29.77,NE,47,2.0,4.0,97,0.00,,,0.61,,2013-04-08 20:33:00,
2013-04-08 15:43:00,43.0,42.0,29.77,NE,47,2.0,4.0,97,0.00,,,0.61,,2013-04-08 20:43:00,
2013-04-08 15:52:00,46.0,45.0,29.77,NNW,336,0.0,2.0,95,0.00,,,0.61,,2013-04-08 20:52:00,
2013-04-08 16:02:00,47.0,45.0,29.77,North,11,0.0,4.0,93,0.00,,,0.61,,2013-04-08 21:02:00,
2013-04-08 16:12:00,47.0,44.0,29.78,NW,314,1.0,3.0,90,0.00,,,0.61,,2013-04-08 21:12:00,
2013-04-08 16:22:00,47.0,44.0,29.78,NW,314,1.0,3.0,90,0.00,,,0.61,,2013-04-08 21:22:00,
2013-04-08 16:32:00,47.0,44.0,29.78,NW,315,1.0,2.0,89,0.00,,,0.61,,2013-04-08 21:32:00,
2013-04-08 16:43:00,47.0,44.0,29.78,NW,315,1.0,2.0,89,0.00,,,0.61,,2013-04-08 21:43:00,
2013-04-08 16:53:00,47.0,43.0,29.80,NNW,333,2.0,3.0,87,0.00,,,0.61,,2013-04-08 21:53:00,
2013-04-08 17:03:00,47.0,43.0,29.80,WNW,288,3.0,3.0,86,0.00,,,0.61,,2013-04-08 22:03:00,
2013-04-08 17:13:00,47.0,43.0,29.80,WNW,288,3.0,3.0,86,0.00,,,0.61,,2013-04-08 22:13:00,
2013-04-08 17:22:00,47.0,43.0,29.80,WNW,288,3.0,3.0,86,0.00,,,0.61,,2013-04-08 22:22:00,
2013-04-08 17:32:00,47.0,43.0,29.80,WNW,288,3.0,3.0,86,0.00,,,0.61,,2013-04-08 22:32:00,
2013-04-08 17:43:00,47.0,43.0,29.83,North,350,0.0,3.0,86,0.00,,,0.61,,2013-04-08 22:43:00,
2013-04-08 17:53:00,47.0,43.0,29.83,West,265,2.0,2.0,86,0.00,,,0.61,,2013-04-08 22:53:00,
2013-04-08 18:02:00,49.0,44.0,29.85,West,265,2.0,3.0,84,0.00,,,0.61,,2013-04-08 23:02:00,
2013-04-08 18:12:00,49.0,44.0,29.85,West,265,2.0,3.0,84,0.00,,,0.61,,2013-04-08 23:12:00,
2013-04-08 18:22:00,49.0,44.0,29.85,West,265,2.0,3.0,84,0.00,,,0.61,,2013-04-08 23:22:00,
2013-04-08 18:32:00,49.0,44.0,29.85,West,265,2.0,3.0,84,0.00,,,0.61,,2013-04-08 23:32:00,
2013-04-08 18:42:00,49.0,44.0,29.85,West,265,2.0,3.0,84,0.00,,,0.61,,2013-04-08 23:42:00,
2013-04-08 18:52:00,48.0,43.0,29.85,NE,35,0.0,2.0,82,0.00,,,0.61,,2013-04-08 23:52:00,
2013-04-08 19:02:00,48.0,43.0,29.85,ENE,59,2.0,3.0,84,0.00,,,0.61,,2013-04-09 00:02:00,
2013-04-08 19:12:00,48.0,43.0,29.85,ENE,59,2.0,3.0,84,0.00,,,0.61,,2013-04-09 00:12:00,
2013-04-08 19:22:00,48.0,43.0,29.85,ENE,59,2.0,3.0,84,0.00,,,0.61,,2013-04-09 00:22:00,
2013-04-08 19:32:00,47.0,43.0,29.88,ENE,59,0.0,0.0,87,0.00,,,0.61,,2013-04-09 00:32:00,
2013-04-08 19:42:00,47.0,43.0,29.88,ENE,59,0.0,0.0,87,0.00,,,0.61,,2013-04-09 00:42:00,
2013-04-08 19:52:00,47.0,43.0,29.88,ENE,59,0.0,0.0,87,0.00,,,0.61,,2013-04-09 00:52:00,
2013-04-08 20:02:00,46.0,43.0,29.88,ENE,59,0.0,0.0,88,0.00,,,0.61,,2013-04-09 01:02:00,
2013-04-08 20:12:00,46.0,43.0,29.88,ENE,59,0.0,0.0,88,0.00,,,0.61,,2013-04-09 01:12:00,
2013-04-08 20:22:00,46.0,43.0,29.88,ENE,59,0.0,0.0,88,0.00,,,0.61,,2013-04-09 01:22:00,
2013-04-08 20:33:00,46.0,43.0,29.88,ENE,59,0.0,0.0,88,0.00,,,0.61,,2013-04-09 01:33:00,
2013-04-08 21:02:00,43.0,41.0,29.93,ENE,59,2.0,2.0,92,0.00,,,0.61,,2013-04-09 02:02:00,
2013-04-08 21:13:00,43.0,41.0,29.93,ENE,59,2.0,2.0,92,0.00,,,0.61,,2013-04-09 02:13:00,
2013-04-08 21:22:00,43.0,41.0,29.93,ENE,59,2.0,2.0,92,0.00,,,0.61,,2013-04-09 02:22:00,
2013-04-08 21:32:00,43.0,41.0,29.93,ENE,59,2.0,2.0,92,0.00,,,0.61,,2013-04-09 02:32:00,
2013-04-08 21:43:00,42.0,40.0,29.93,ENE,59,0.0,2.0,93,0.00,,,0.61,,2013-04-09 02:43:00,
2013-04-08 21:52:00,42.0,40.0,29.93,ENE,59,0.0,2.0,93,0.00,,,0.61,,2013-04-09 02:52:00,
2013-04-08 22:02:00,42.0,40.0,29.94,ENE,59,0.0,0.0,94,0.00,,,0.61,,2013-04-09 03:02:00,
2013-04-08 22:12:00,42.0,40.0,29.94,ENE,59,0.0,0.0,94,0.00,,,0.61,,2013-04-09 03:12:00,
2013-04-08 22:21:00,42.0,40.0,29.95,ENE,59,0.0,1.0,94,0.00,,,0.61,,2013-04-09 03:21:00,
2013-04-08 22:33:00,42.0,40.0,29.95,ENE,59,0.0,0.0,94,0.00,,,0.61,,2013-04-09 03:33:00,
2013-04-08 22:43:00,42.0,40.0,29.95,ENE,59,0.0,0.0,94,0.00,,,0.61,,2013-04-09 03:43:00,
2013-04-08 22:52:00,42.0,41.0,29.96,ENE,59,1.0,3.0,95,0.00,,,0.61,,2013-04-09 03:52:00,
2013-04-08 23:03:00,42.0,41.0,29.96,ENE,58,3.0,3.0,95,0.00,,,0.61,,2013-04-09 04:03:00,
2013-04-08 23:13:00,42.0,41.0,29.96,ENE,58,3.0,3.0,95,0.00,,,0.61,,2013-04-09 04:13:00,
2013-04-08 23:23:00,43.0,42.0,29.96,NE,55,3.0,4.0,96,0.00,,,0.61,,2013-04-09 04:23:00,
2013-04-08 23:32:00,43.0,42.0,29.96,NE,55,3.0,4.0,96,0.00,,,0.61,,2013-04-09 04:32:00,
2013-04-08 23:42:00,43.0,42.0,29.96,NE,55,3.0,4.0,96,0.00,,,0.61,,2013-04-09 04:42:00,
2013-04-08 23:52:00,43.0,42.0,29.96,NE,55,3.0,4.0,96,0.00,,,0.61,,2013-04-09 04:52:00,